Time;durP1;ratioP1;P1;durP2;ratioP2;P2;SDS_P1;SDS_P2;PMS_P1;PMS_P2;Temp;Humidity;BMP_temperature;BMP_pressure;BME280_temperature;BME280_humidity;BME280_pressure;Samples;Min_cycle;Max_cycle;Signal;HPM_P1;HPM_P2
2021/06/15 00:02:08;;;;;;;7.10;6.10;;;16.80;99.90;;;;;;6293110;28;20040;-82
2021/06/15 00:05:09;;;;;;;8.43;5.95;;;17.00;99.90;;;;;;6276720;28;20396;-84
2021/06/15 00:08:10;;;;;;;7.60;6.28;;;16.80;99.90;;;;;;6276465;28;20382;-82
2021/06/15 00:11:11;;;;;;;7.90;6.43;;;16.80;99.90;;;;;;6276489;28;20127;-82
2021/06/15 00:14:11;;;;;;;7.53;6.72;;;16.80;99.90;;;;;;6293031;28;20471;-82
2021/06/15 00:17:12;;;;;;;10.15;6.70;;;17.40;99.90;;;;;;6275905;28;20437;-81
2021/06/15 00:20:13;;;;;;;13.88;6.55;;;16.70;99.90;;;;;;6276173;28;20048;-82
2021/06/15 00:23:14;;;;;;;11.70;6.07;;;16.70;99.90;;;;;;6276105;28;20025;-82
2021/06/15 00:26:14;;;;;;;8.02;5.78;;;16.80;99.90;;;;;;6292999;28;20439;-82
2021/06/15 00:29:15;;;;;;;9.05;6.50;;;16.80;99.90;;;;;;6275800;28;20416;-82
2021/06/15 00:32:15;;;;;;;7.07;5.85;;;16.60;99.90;;;;;;6292741;28;20033;-82
2021/06/15 00:35:17;;;;;;;6.45;5.40;;;16.60;99.90;;;;;;6275857;28;20076;-80
2021/06/15 00:38:17;;;;;;;8.83;6.17;;;16.60;99.90;;;;;;6292127;28;20028;-83
2021/06/15 00:41:18;;;;;;;7.70;6.35;;;16.50;99.90;;;;;;6292226;28;20554;-82
2021/06/15 00:44:19;;;;;;;7.72;5.50;;;16.50;99.90;;;;;;6264423;28;20027;-82
2021/06/15 00:47:19;;;;;;;10.93;6.03;;;16.40;99.90;;;;;;6275585;28;20111;-82
2021/06/15 00:50:21;;;;;;;8.40;5.85;;;16.30;99.90;;;;;;6275337;28;20393;-82
2021/06/15 00:53:22;;;;;;;8.50;6.05;;;;;;;;;;6275390;28;20469;-82
2021/06/15 00:56:23;;;;;;;8.65;6.30;;;16.20;99.90;;;;;;6274986;28;20042;-82
2021/06/15 00:59:23;;;;;;;9.30;5.57;;;16.30;99.90;;;;;;6292532;28;20485;-82
2021/06/15 01:02:25;;;;;;;6.22;4.95;;;16.10;99.90;;;;;;6275280;28;20111;-82
2021/06/15 01:05:25;;;;;;;5.85;4.85;;;16.00;99.90;;;;;;6275300;28;20033;-81
2021/06/15 01:08:32;;;;;;;7.75;5.40;;;16.00;99.90;;;;;;6291769;28;20032;-84
2021/06/15 01:11:55;;;;;;;9.52;5.30;;;16.10;99.90;;;;;;6293144;28;20157;-82
2021/06/15 01:15:09;;;;;;;7.00;5.18;;;16.00;99.90;;;;;;6291936;28;20472;-82
2021/06/15 01:18:14;;;;;;;8.07;5.13;;;16.00;99.90;;;;;;6275117;28;20058;-82
2021/06/15 01:21:14;;;;;;;7.10;5.28;;;16.00;99.90;;;;;;6291622;28;20024;-82
2021/06/15 01:24:22;;;;;;;5.53;4.85;;;16.10;99.90;;;;;;6274928;28;20025;-84
2021/06/15 01:27:57;;;;;;;7.57;5.15;;;15.90;99.90;;;;;;6291838;28;20032;-82
2021/06/15 01:31:08;;;;;;;7.05;5.35;;;16.10;99.90;;;;;;6291342;28;20073;-82
2021/06/15 01:34:21;;;;;;;7.40;5.32;;;16.20;99.90;;;;;;6274692;28;20090;-82
2021/06/15 01:37:23;;;;;;;;;;;15.90;99.90;;;;;;6292224;28;20021;-82
2021/06/15 01:40:26;;;;;;;;;;;15.60;99.90;;;;;;6291630;28;19912;-82
2021/06/15 01:43:31;;;;;;;;;;;15.70;99.90;;;;;;6291806;28;19905;-82
2021/06/15 01:46:35;;;;;;;7.57;4.88;;;15.80;99.90;;;;;;6274627;28;20346;-82
2021/06/15 01:49:40;;;;;;;4.53;4.07;;;15.90;99.90;;;;;;6275828;28;20024;-82
2021/06/15 01:52:41;;;;;;;10.52;5.25;;;15.90;99.90;;;;;;6280161;28;20052;-85
2021/06/15 01:55:44;;;;;;;7.78;5.13;;;16.80;99.90;;;;;;6279800;28;20047;-83
2021/06/15 01:58:46;;;;;;;5.10;4.28;;;15.90;99.90;;;;;;6269627;28;20028;-82
2021/06/15 02:01:48;;;;;;;6.88;4.63;;;15.50;99.90;;;;;;6296364;28;20031;-82
2021/06/15 02:04:50;;;;;;;8.98;5.53;;;16.10;99.90;;;;;;6279596;28;20044;-85
2021/06/15 02:07:50;;;;;;;8.75;4.75;;;14.80;99.90;;;;;;6279662;28;20033;-82
2021/06/15 02:10:51;;;;;;;5.25;4.65;;;15.80;99.90;;;;;;6279388;28;20098;-82
2021/06/15 02:13:52;;;;;;;5.10;4.28;;;15.80;99.90;;;;;;6295835;28;20097;-81
2021/06/15 02:16:57;;;;;;;4.80;4.10;;;15.60;99.90;;;;;;6279299;28;20036;-82
2021/06/15 02:19:58;;;;;;;7.28;4.22;;;15.70;99.90;;;;;;6279191;28;20033;-81
2021/06/15 02:23:01;;;;;;;6.88;4.78;;;15.70;99.90;;;;;;6295536;28;20462;-82
2021/06/15 02:26:06;;;;;;;6.25;4.38;;;15.60;99.90;;;;;;6278635;28;20020;-81
2021/06/15 02:29:12;;;;;;;5.50;4.72;;;15.60;99.90;;;;;;6278970;28;20044;-80
2021/06/15 02:32:14;;;;;;;6.95;4.00;;;15.60;99.90;;;;;;6278527;28;20406;-81
2021/06/15 02:35:14;;;;;;;7.85;5.03;;;15.60;99.90;;;;;;6278727;28;20043;-82
2021/06/15 02:38:26;;;;;;;8.18;4.63;;;15.50;99.90;;;;;;6278502;28;20131;-82
2021/06/15 02:41:26;;;;;;;7.70;4.70;;;15.40;99.90;;;;;;6278862;28;20466;-81
2021/06/15 02:44:30;;;;;;;5.10;4.28;;;15.30;99.90;;;;;;6278185;28;20037;-81
2021/06/15 02:47:32;;;;;;;5.75;4.38;;;15.40;99.90;;;;;;6278676;28;20033;-83
2021/06/15 02:50:34;;;;;;;5.90;4.75;;;15.30;99.90;;;;;;6294993;28;20207;-81
2021/06/15 02:53:44;;;;;;;7.88;5.05;;;15.50;99.90;;;;;;6277909;28;20124;-81
2021/06/15 02:56:47;;;;;;;6.57;4.78;;;15.20;99.90;;;;;;6278375;28;20059;-81
2021/06/15 02:59:48;;;;;;;6.82;4.60;;;15.10;99.90;;;;;;6295081;28;20024;-81
2021/06/15 03:02:48;;;;;;;8.68;5.20;;;14.80;99.90;;;;;;6277459;28;20058;-81
2021/06/15 03:05:49;;;;;;;11.07;4.93;;;14.70;99.90;;;;;;6294504;28;20402;-81
2021/06/15 03:08:50;;;;;;;5.78;4.40;;;14.80;99.90;;;;;;6278277;28;20032;-82
2021/06/15 03:11:57;;;;;;;7.10;4.25;;;15.20;99.90;;;;;;6278056;28;20426;-82
2021/06/15 03:15:08;;;;;;;5.65;4.13;;;15.30;99.90;;;;;;6278032;28;20037;-82
2021/06/15 03:18:14;;;;;;;9.02;4.72;;;15.10;99.90;;;;;;6294819;28;20101;-83
2021/06/15 03:21:20;;;;;;;7.03;4.38;;;15.20;99.90;;;;;;6278386;28;20493;-83
2021/06/15 03:24:22;;;;;;;7.45;4.55;;;15.00;99.90;;;;;;6294968;28;20029;-83
2021/06/15 03:28:04;;;;;;;4.95;4.38;;;15.10;99.90;;;;;;6278104;28;20025;-82
2021/06/15 03:31:04;;;;;;;5.78;5.03;;;15.50;99.90;;;;;;6288830;28;20052;-84
2021/06/15 03:34:05;;;;;;;8.77;5.05;;;15.00;99.90;;;;;;6294599;28;20050;-82
2021/06/15 03:37:06;;;;;;;7.43;5.15;;;14.90;99.90;;;;;;6294038;28;20459;-82
2021/06/15 03:40:07;;;;;;;6.32;5.47;;;14.80;99.90;;;;;;6294294;28;20029;-82
2021/06/15 03:43:08;;;;;;;5.90;5.10;;;14.80;99.90;;;;;;6294015;28;20127;-82
2021/06/15 03:46:09;;;;;;;9.32;4.85;;;14.80;99.90;;;;;;6277378;28;20506;-83
2021/06/15 03:49:10;;;;;;;8.20;4.70;;;14.80;99.90;;;;;;6294209;28;20020;-83
2021/06/15 03:52:11;;;;;;;6.53;5.03;;;14.80;99.90;;;;;;6293826;28;20033;-81
2021/06/15 03:55:12;;;;;;;8.80;4.38;;;14.70;99.90;;;;;;6276925;28;20040;-82
2021/06/15 03:58:13;;;;;;;5.07;4.30;;;14.70;99.90;;;;;;6293651;28;20028;-82
2021/06/15 04:01:14;;;;;;;5.88;4.97;;;;;;;;;;6276972;28;20032;-82
2021/06/15 04:04:15;;;;;;;6.53;4.53;;;14.80;99.90;;;;;;6293216;28;20016;-81
2021/06/15 04:07:20;;;;;;;7.88;4.57;;;14.60;99.90;;;;;;6276926;28;20029;-83
2021/06/15 04:10:21;;;;;;;5.85;3.70;;;14.60;99.90;;;;;;6276522;28;20024;-82
2021/06/15 04:13:22;;;;;;;8.50;4.22;;;15.30;99.90;;;;;;6292307;28;20480;-81
2021/06/15 04:16:23;;;;;;;4.77;4.00;;;15.50;99.90;;;;;;6276797;28;20032;-81
2021/06/15 04:19:26;;;;;;;5.50;4.05;;;16.10;99.90;;;;;;6293296;28;20342;-83
2021/06/15 04:22:28;;;;;;;7.35;4.47;;;16.60;99.90;;;;;;6293249;28;20489;-82
2021/06/15 04:25:31;;;;;;;6.97;4.10;;;16.70;99.90;;;;;;6276673;28;20489;-81
2021/06/15 04:28:31;;;;;;;;;;;16.90;99.90;;;;;;6275878;28;20052;-82
2021/06/15 04:31:32;;;;;;;4.18;3.78;;;17.30;99.90;;;;;;6294788;28;20451;-80
2021/06/15 04:34:34;;;;;;;6.03;4.07;;;17.60;99.90;;;;;;6272347;28;20098;-83
2021/06/15 04:37:35;;;;;;;4.60;4.10;;;18.00;99.90;;;;;;6276312;28;20074;-83
2021/06/15 04:40:37;;;;;;;6.68;3.90;;;18.10;99.90;;;;;;6293031;28;20099;-83
2021/06/15 04:43:42;;;;;;;5.25;4.10;;;18.40;99.90;;;;;;6275698;28;20039;-80
2021/06/15 04:46:48;;;;;;;7.13;4.32;;;18.90;99.90;;;;;;6293243;28;20466;-79
2021/06/15 04:50:11;;;;;;;7.80;3.97;;;19.00;99.00;;;;;;6292520;28;20451;-79
2021/06/15 04:53:11;;;;;;;;;;;20.90;96.70;;;;;;6292788;28;20020;-78
2021/06/15 04:56:12;;;;;;;4.95;4.07;;;19.60;97.60;;;;;;6292360;28;19969;-78
2021/06/15 04:59:13;;;;;;;8.27;4.28;;;19.70;97.70;;;;;;6291713;28;20036;-78
2021/06/15 05:02:14;;;;;;;6.63;4.53;;;18.90;98.60;;;;;;6275303;28;20032;-79
2021/06/15 05:05:14;;;;;;;8.38;4.53;;;20.20;98.20;;;;;;6292153;28;20082;-78
2021/06/15 05:08:15;;;;;;;6.72;4.30;;;20.20;98.40;;;;;;6275641;28;20025;-80
2021/06/15 05:11:16;;;;;;;4.78;4.00;;;20.10;98.30;;;;;;6291905;28;20082;-82
2021/06/15 05:14:16;;;;;;;6.15;3.72;;;20.60;98.30;;;;;;6275432;28;20032;-80
2021/06/15 05:17:19;;;;;;;4.68;4.15;;;20.40;96.80;;;;;;6291997;28;20138;-79
2021/06/15 05:20:21;;;;;;;5.70;4.20;;;21.00;96.40;;;;;;6291928;28;20029;-79
2021/06/15 05:23:28;;;;;;;8.48;3.92;;;21.10;99.50;;;;;;6291707;28;20024;-79
2021/06/15 05:26:29;;;;;;;7.65;4.50;;;21.40;95.90;;;;;;6292862;28;20128;-77
2021/06/15 05:29:30;;;;;;;7.47;4.60;;;21.60;96.60;;;;;;6291417;28;20053;-77
2021/06/15 05:32:31;;;;;;;7.68;5.00;;;21.70;96.00;;;;;;6290750;28;20097;-77
2021/06/15 05:35:31;;;;;;;5.28;4.55;;;21.90;95.60;;;;;;6291416;28;20056;-77
2021/06/15 05:38:32;;;;;;;5.40;4.35;;;22.30;95.00;;;;;;6291769;28;20043;-78
2021/06/15 05:41:33;;;;;;;5.95;4.80;;;22.80;95.10;;;;;;6292460;28;20028;-77
2021/06/15 05:44:34;;;;;;;7.32;4.80;;;23.00;91.40;;;;;;6291406;28;20033;-77
2021/06/15 05:47:36;;;;;;;9.85;4.85;;;22.90;90.80;;;;;;6291914;28;20032;-77
2021/06/15 05:50:36;;;;;;;7.47;4.57;;;23.00;90.40;;;;;;6291311;28;20044;-77
2021/06/15 05:53:37;;;;;;;7.70;4.10;;;23.20;90.70;;;;;;6291292;28;20162;-77
2021/06/15 05:56:38;;;;;;;5.15;4.13;;;23.50;89.70;;;;;;6291267;28;20024;-77
2021/06/15 05:59:38;;;;;;;7.13;4.05;;;23.40;88.40;;;;;;6292562;28;20523;-77
2021/06/15 06:02:39;;;;;;;6.30;4.70;;;23.70;88.20;;;;;;6291340;28;20043;-86
2021/06/15 06:08:59;;;;;;;7.15;3.97;;;24.60;82.70;;;;;;6290436;28;20548;-86
2021/06/15 06:11:59;;;;;;;4.60;3.60;;;25.20;82.20;;;;;;6274571;28;20385;-87
2021/06/15 06:15:00;;;;;;;5.43;3.83;;;26.10;80.00;;;;;;6274630;28;20063;-86
2021/06/15 06:18:07;;;;;;;5.70;3.73;;;26.80;77.70;;;;;;6274425;28;20120;-87
2021/06/15 06:21:10;;;;;;;9.07;4.40;;;27.50;74.70;;;;;;6274522;28;20028;-86
2021/06/15 06:24:12;;;;;;;6.55;4.50;;;28.00;73.70;;;;;;6291638;28;20028;-86
2021/06/15 06:27:13;;;;;;;6.50;4.20;;;28.50;69.90;;;;;;6274459;28;20036;-86
2021/06/15 06:30:14;;;;;;;4.80;4.07;;;28.70;67.00;;;;;;6273901;28;20088;-87
2021/06/15 06:33:15;;;;;;;5.20;3.80;;;;;;;;;;6274502;28;20131;-86
2021/06/15 06:36:16;;;;;;;9.27;4.00;;;29.10;63.30;;;;;;6275278;28;20071;-86
2021/06/15 06:39:17;;;;;;;5.67;3.70;;;29.40;63.30;;;;;;6279022;28;20028;-86
2021/06/15 06:42:19;;;;;;;4.33;3.60;;;29.40;62.00;;;;;;6278779;28;20105;-86
2021/06/15 06:45:19;;;;;;;5.40;3.40;;;29.60;63.80;;;;;;6279133;28;20395;-86
2021/06/15 06:48:20;;;;;;;7.33;3.47;;;29.70;61.50;;;;;;6278523;28;20131;-86
2021/06/15 06:51:21;;;;;;;7.23;3.97;;;30.20;60.30;;;;;;6278866;28;20024;-86
2021/06/15 06:54:21;;;;;;;8.60;4.53;;;30.50;60.40;;;;;;6278676;28;20091;-85
2021/06/15 06:57:22;;;;;;;6.27;4.50;;;;;;;;;;6278472;28;20303;-86
2021/06/15 07:00:24;;;;;;;7.00;3.90;;;;;;;;;;6278541;28;20113;-86
2021/06/15 07:03:24;;;;;;;;;;;31.50;64.50;;;;;;6295288;28;20024;-87
2021/06/15 07:06:25;;;;;;;6.10;3.90;;;32.50;69.10;;;;;;6278611;28;19950;-87
2021/06/15 07:09:26;;;;;;;7.93;3.90;;;;;;;;;;6278283;28;20429;-87
2021/06/15 07:12:27;;;;;;;6.93;4.13;;;;;;;;;;6279788;28;20478;-86
2021/06/15 07:15:29;;;;;;;7.10;4.03;;;;;;;;;;6278089;28;20062;-87
2021/06/15 07:18:31;;;;;;;6.40;4.45;;;32.40;62.60;;;;;;6278149;28;20051;-87
2021/06/15 07:21:31;;;;;;;5.10;3.90;;;32.00;61.90;;;;;;6294857;28;20631;-87
2021/06/15 07:24:32;;;;;;;6.43;3.70;;;32.20;63.30;;;;;;6278142;28;20025;-87
2021/06/15 07:27:32;;;;;;;5.03;3.90;;;32.30;56.60;;;;;;6272006;28;20098;-87
2021/06/15 07:30:33;;;;;;;7.63;3.90;;;32.60;57.90;;;;;;6274125;28;20695;-86
2021/06/15 07:33:34;;;;;;;4.65;4.03;;;32.70;56.40;;;;;;6277797;28;20039;-86
2021/06/15 07:36:34;;;;;;;5.10;4.07;;;32.90;55.60;;;;;;6277795;28;20032;-86
2021/06/15 07:39:35;;;;;;;7.53;4.50;;;33.80;55.60;;;;;;6294585;28;20259;-85
2021/06/15 07:42:35;;;;;;;8.98;3.63;;;33.10;55.20;;;;;;6277522;28;20024;-86
2021/06/15 07:45:37;;;;;;;5.28;3.63;;;33.00;55.10;;;;;;6270675;28;20470;-86
2021/06/15 07:48:37;;;;;;;;;;;33.10;54.20;;;;;;6277662;28;20459;-87
2021/06/15 07:51:38;;;;;;;5.30;3.73;;;33.10;54.40;;;;;;6277525;28;19919;-86
2021/06/15 07:54:41;;;;;;;4.00;3.60;;;33.30;54.10;;;;;;6277433;28;20439;-86
2021/06/15 07:57:42;;;;;;;6.63;3.67;;;33.30;54.30;;;;;;6277925;28;20521;-85
2021/06/15 08:00:42;;;;;;;6.03;3.83;;;33.30;55.30;;;;;;6277354;28;20086;-84
2021/06/15 08:03:43;;;;;;;6.00;3.78;;;33.40;54.20;;;;;;6276890;28;20070;-84
2021/06/15 08:06:44;;;;;;;5.85;4.13;;;33.40;55.10;;;;;;6276873;28;20025;-85
2021/06/15 08:09:44;;;;;;;6.88;4.43;;;33.70;54.20;;;;;;6276671;28;20520;-85
2021/06/15 08:12:49;;;;;;;9.35;4.90;;;33.80;54.20;;;;;;6276837;28;20051;-85
2021/06/15 08:15:50;;;;;;;7.82;4.40;;;33.70;55.00;;;;;;6276679;28;20048;-85
2021/06/15 08:18:51;;;;;;;7.35;4.57;;;33.90;56.30;;;;;;6293487;28;20073;-84
2021/06/15 08:21:52;;;;;;;5.93;4.88;;;33.60;54.80;;;;;;6276743;28;20450;-88
2021/06/15 08:24:52;;;;;;;8.55;4.68;;;33.40;55.40;;;;;;6276987;28;20149;-87
2021/06/15 08:27:53;;;;;;;6.00;4.53;;;33.80;55.60;;;;;;6293795;28;20035;-86
2021/06/15 08:30:53;;;;;;;6.82;4.65;;;34.10;55.70;;;;;;6268552;28;20441;-85
2021/06/15 08:33:54;;;;;;;10.70;5.32;;;33.70;56.60;;;;;;6276205;28;20036;-86
2021/06/15 08:36:54;;;;;;;5.72;4.40;;;33.70;58.40;;;;;;6276054;28;20031;-86
2021/06/15 08:39:55;;;;;;;9.48;4.43;;;33.60;62.20;;;;;;6276070;28;20123;-86
2021/06/15 08:42:56;;;;;;;5.97;4.47;;;33.50;62.80;;;;;;6275928;28;20025;-85
2021/06/15 08:45:57;;;;;;;6.68;4.32;;;33.40;61.70;;;;;;6265953;28;20063;-85
2021/06/15 08:48:58;;;;;;;5.28;4.38;;;33.40;62.50;;;;;;6276146;28;20021;-85
2021/06/15 08:51:58;;;;;;;;;;;33.70;61.50;;;;;;6276469;28;20032;-86
2021/06/15 08:54:59;;;;;;;7.70;4.57;;;34.10;61.60;;;;;;6275926;28;20316;-85
2021/06/15 08:58:10;;;;;;;7.35;4.72;;;34.40;61.60;;;;;;6275943;28;20032;-87
2021/06/15 09:01:14;;;;;;;8.88;4.93;;;34.50;57.20;;;;;;6275415;28;20028;-85
2021/06/15 09:04:14;;;;;;;10.20;4.53;;;34.80;60.70;;;;;;6275428;28;20379;-85
2021/06/15 09:07:15;;;;;;;6.53;4.65;;;34.70;59.50;;;;;;6275705;28;20032;-85
2021/06/15 09:10:26;;;;;;;9.15;4.82;;;34.70;59.90;;;;;;6292363;28;20071;-86
2021/06/15 09:13:34;;;;;;;7.88;4.85;;;34.80;59.00;;;;;;6275383;28;20050;-85
2021/06/15 09:16:37;;;;;;;5.20;4.05;;;34.90;58.70;;;;;;6291923;28;20032;-85
2021/06/15 09:19:39;;;;;;;16.08;5.05;;;34.90;54.90;;;;;;6262713;28;20056;-85
2021/06/15 09:22:40;;;;;;;6.07;4.68;;;34.70;58.30;;;;;;6275399;28;20101;-85
2021/06/15 09:25:46;;;;;;;17.65;4.97;;;34.90;57.80;;;;;;6275480;28;20024;-86
2021/06/15 09:28:50;;;;;;;12.13;4.70;;;35.20;57.90;;;;;;6274973;28;20056;-86
2021/06/15 09:31:53;;;;;;;6.20;4.20;;;35.30;57.40;;;;;;6275482;28;20028;-85
2021/06/15 09:34:56;;;;;;;6.07;4.28;;;35.10;59.20;;;;;;6275199;28;20381;-87
2021/06/15 09:37:57;;;;;;;7.93;4.32;;;35.40;56.10;;;;;;6292047;28;20036;-86
2021/06/15 09:40:58;;;;;;;8.38;4.15;;;35.40;59.30;;;;;;6269314;28;20021;-85
2021/06/15 09:44:14;;;;;;;;;;;35.40;58.80;;;;;;6292640;28;20488;-86
2021/06/15 09:47:15;;;;;;;5.40;4.50;;;35.50;56.20;;;;;;6274818;28;20390;-86
2021/06/15 09:50:17;;;;;;;;;;;35.70;70.50;;;;;;6270469;28;20033;-85
2021/06/15 09:53:23;;;;;;;9.68;4.50;;;35.40;70.70;;;;;;6291904;28;19904;-85
2021/06/15 09:56:23;;;;;;;6.60;4.07;;;35.10;59.70;;;;;;6274630;28;20385;-85
2021/06/15 09:59:24;;;;;;;;;;;34.90;59.70;;;;;;6275618;28;20031;-85
2021/06/15 10:02:25;;;;;;;12.47;4.97;;;35.30;56.70;;;;;;6274969;28;20393;-85
2021/06/15 10:05:26;;;;;;;;;;;35.30;56.70;;;;;;6275226;28;20081;-85
2021/06/15 10:08:45;;;;;;;5.90;3.90;;;34.90;56.60;;;;;;6275107;28;19904;-85
2021/06/15 10:11:46;;;;;;;6.82;4.07;;;34.60;55.90;;;;;;6277802;28;20060;-85
2021/06/15 10:14:47;;;;;;;;;;;34.50;56.80;;;;;;6296668;28;20036;-86
2021/06/15 10:17:47;;;;;;;8.33;4.17;;;34.50;58.20;;;;;;6279445;28;19912;-85
2021/06/15 10:20:48;;;;;;;;;;;34.70;57.30;;;;;;6279975;28;20016;-85
2021/06/15 10:23:48;;;;;;;6.53;4.77;;;34.70;58.00;;;;;;6279649;28;20014;-87
2021/06/15 10:26:49;;;;;;;;;;;35.40;58.60;;;;;;6279678;28;20486;-85
2021/06/15 10:29:51;;;;;;;7.40;4.13;;;34.90;58.50;;;;;;6279145;28;20277;-85
2021/06/15 10:32:56;;;;;;;6.70;4.28;;;34.90;57.40;;;;;;6279237;28;20031;-85
2021/06/15 10:36:01;;;;;;;4.80;3.50;;;34.90;59.80;;;;;;6278535;28;20149;-84
2021/06/15 10:39:02;;;;;;;6.15;4.13;;;34.90;55.70;;;;;;6295743;28;20390;-84
2021/06/15 10:42:14;;;;;;;;;;;34.50;55.70;;;;;;6296261;28;20063;-85
2021/06/15 10:45:20;;;;;;;5.78;3.70;;;34.60;59.50;;;;;;6279593;28;19908;-85
2021/06/15 10:48:21;;;;;;;6.18;4.40;;;34.80;54.40;;;;;;6295549;28;20029;-85
2021/06/15 10:51:22;;;;;;;;;;;34.50;62.20;;;;;;6295991;28;20032;-85
2021/06/15 10:54:38;;;;;;;6.47;3.97;;;34.40;60.30;;;;;;6295546;28;19962;-87
2021/06/15 10:57:52;;;;;;;5.90;3.83;;;34.10;58.10;;;;;;6279217;28;20025;-84
2021/06/15 11:00:53;;;;;;;4.95;4.45;;;34.00;60.30;;;;;;6278141;28;20028;-84
2021/06/15 11:03:53;;;;;;;6.40;4.43;;;33.80;65.80;;;;;;6278685;28;20478;-86
2021/06/15 11:06:55;;;;;;;;;;;33.90;49.80;;;;;;6295617;28;20576;-85
2021/06/15 11:09:55;;;;;;;5.22;4.10;;;33.90;51.50;;;;;;6278592;28;19908;-85
2021/06/15 11:12:56;;;;;;;5.32;4.47;;;34.00;51.10;;;;;;6278432;28;20033;-85
2021/06/15 11:16:00;;;;;;;;;;;33.80;51.80;;;;;;6278455;28;20040;-86
2021/06/15 11:19:19;;;;;;;5.68;4.38;;;33.70;49.80;;;;;;6277760;28;19908;-86
2021/06/15 11:22:22;;;;;;;6.90;4.25;;;33.80;50.80;;;;;;6294020;28;20024;-87
2021/06/15 11:25:45;;;;;;;6.45;4.05;;;33.80;51.70;;;;;;6267402;28;20382;-86
2021/06/15 11:28:58;;;;;;;6.22;4.57;;;33.90;51.60;;;;;;6277884;28;20088;-85
2021/06/15 11:32:18;;;;;;;7.85;4.35;;;33.60;51.70;;;;;;6277633;28;20044;-86
2021/06/15 11:35:19;;;;;;;4.75;3.80;;;33.60;53.30;;;;;;6276530;28;20047;-87
2021/06/15 11:38:19;;;;;;;4.80;4.00;;;33.70;54.10;;;;;;6294159;28;20028;-86
2021/06/15 11:41:20;;;;;;;5.82;4.00;;;33.50;51.80;;;;;;6277711;28;20040;-85
2021/06/15 11:44:45;;;;;;;5.95;4.10;;;35.10;53.00;;;;;;6294240;28;20120;-85
2021/06/15 11:47:47;;;;;;;7.25;4.70;;;33.20;50.80;;;;;;6294572;28;20115;-85
2021/06/15 11:50:55;;;;;;;7.80;3.92;;;33.00;55.50;;;;;;6277301;28;20462;-86
2021/06/15 11:53:55;;;;;;;5.50;4.22;;;33.10;53.60;;;;;;6277728;28;20041;-87
2021/06/15 11:56:56;;;;;;;4.68;4.20;;;32.90;50.10;;;;;;6293690;28;20121;-85
2021/06/15 11:59:56;;;;;;;4.72;4.22;;;32.80;52.50;;;;;;6277143;28;20028;-85
2021/06/15 12:03:01;;;;;;;6.68;3.67;;;32.90;52.20;;;;;;6277259;28;20435;-85
2021/06/15 12:06:02;;;;;;;6.35;4.00;;;32.90;52.30;;;;;;6277238;28;20033;-85
2021/06/15 12:09:03;;;;;;;5.20;3.90;;;32.60;50.70;;;;;;6276815;28;20124;-84
2021/06/15 12:12:04;;;;;;;5.60;4.03;;;32.70;53.50;;;;;;6277072;28;20056;-86
2021/06/15 12:15:05;;;;;;;5.68;3.60;;;32.70;52.80;;;;;;6276833;28;20048;-87
2021/06/15 12:18:07;;;;;;;;;;;32.60;53.50;;;;;;6294033;28;20107;-85
2021/06/15 12:21:22;;;;;;;5.82;4.03;;;32.70;54.80;;;;;;6293687;28;19905;-87
2021/06/15 12:24:23;;;;;;;5.38;3.97;;;32.40;51.30;;;;;;6277053;28;20097;-85
2021/06/15 12:27:23;;;;;;;6.28;3.90;;;32.30;53.50;;;;;;6277094;28;20028;-89
2021/06/15 12:30:31;;;;;;;5.43;4.07;;;32.30;54.80;;;;;;6277131;28;20059;-91
2021/06/15 12:33:32;;;;;;;5.80;3.67;;;;;;;;;;6248726;28;20131;-80
2021/06/15 12:36:37;;;;;;;5.90;4.25;;;32.40;52.30;;;;;;6292701;28;20500;-80
2021/06/15 12:39:39;;;;;;;7.90;4.43;;;32.40;54.30;;;;;;6293285;28;20028;-80
2021/06/15 12:42:40;;;;;;;5.22;4.22;;;32.10;55.20;;;;;;6292882;28;20024;-81
2021/06/15 12:45:40;;;;;;;5.68;4.03;;;32.00;54.60;;;;;;6292726;28;20108;-80
2021/06/15 12:48:49;;;;;;;4.13;3.72;;;31.90;53.70;;;;;;6293004;28;20086;-85
2021/06/15 12:51:51;;;;;;;4.22;3.78;;;31.90;53.90;;;;;;6275229;28;20036;-84
2021/06/15 12:54:52;;;;;;;6.82;3.67;;;31.50;52.50;;;;;;6292653;28;20081;-84
2021/06/15 12:57:59;;;;;;;10.30;4.50;;;32.10;52.90;;;;;;6276085;28;20028;-86
2021/06/15 13:01:00;;;;;;;6.90;3.80;;;32.20;54.00;;;;;;6276320;28;20035;-87
2021/06/15 13:04:18;;;;;;;5.78;4.13;;;32.10;52.10;;;;;;6273589;28;20383;-86
2021/06/15 13:07:18;;;;;;;8.65;4.72;;;32.00;54.50;;;;;;6275480;28;20463;-85
2021/06/15 13:10:19;;;;;;;5.93;3.60;;;31.90;53.60;;;;;;6276276;28;20036;-87
2021/06/15 13:13:20;;;;;;;9.48;3.80;;;31.80;53.10;;;;;;6292675;28;20051;-88
2021/06/15 13:16:21;;;;;;;5.30;3.50;;;32.00;55.30;;;;;;6275342;28;20028;-84
2021/06/15 13:19:22;;;;;;;5.88;3.72;;;;;;;;;;6275814;28;20321;-85
2021/06/15 13:22:26;;;;;;;4.22;3.70;;;32.20;52.00;;;;;;6275550;28;20077;-85
2021/06/15 13:25:27;;;;;;;6.22;3.97;;;;;;;;;;6292210;28;20111;-84
2021/06/15 13:28:28;;;;;;;4.05;3.30;;;32.20;53.30;;;;;;6291572;28;20398;-85
2021/06/15 13:31:29;;;;;;;4.57;3.50;;;;;;;;;;6274372;28;20033;-84
2021/06/15 13:34:29;;;;;;;5.47;4.30;;;32.30;52.50;;;;;;6275532;28;20041;-83
2021/06/15 13:37:40;;;;;;;5.22;4.00;;;32.00;57.20;;;;;;6275312;28;20060;-83
2021/06/15 13:40:42;;;;;;;4.47;4.00;;;32.00;51.30;;;;;;6273896;28;20062;-85
2021/06/15 13:43:43;;;;;;;5.38;3.30;;;31.90;49.00;;;;;;6275407;28;20047;-84
2021/06/15 13:46:44;;;;;;;6.47;3.40;;;31.70;48.40;;;;;;6274888;28;20029;-83
2021/06/15 13:49:44;;;;;;;6.20;3.20;;;31.60;49.50;;;;;;6292133;28;20497;-83
2021/06/15 13:52:46;;;;;;;3.83;3.43;;;31.70;49.80;;;;;;6291801;28;20355;-83
2021/06/15 13:55:46;;;;;;;;;;;31.70;46.80;;;;;;6275610;28;20303;-85
2021/06/15 13:58:47;;;;;;;6.50;3.07;;;32.00;48.30;;;;;;6275661;28;19909;-86
2021/06/15 14:01:47;;;;;;;4.80;3.38;;;32.00;47.10;;;;;;6275102;28;20394;-83
2021/06/15 14:04:48;;;;;;;3.70;3.27;;;32.00;48.20;;;;;;6275512;28;20418;-86
2021/06/15 14:07:49;;;;;;;3.55;2.97;;;31.90;48.40;;;;;;6274758;28;20128;-84
2021/06/15 14:10:49;;;;;;;4.97;3.35;;;31.90;49.30;;;;;;6275112;28;20119;-82
2021/06/15 14:13:50;;;;;;;5.80;3.50;;;32.00;50.40;;;;;;6275127;28;20036;-84
2021/06/15 14:16:51;;;;;;;3.75;3.15;;;32.10;48.90;;;;;;6291116;28;20574;-84
2021/06/15 14:19:51;;;;;;;4.07;3.13;;;32.00;50.40;;;;;;6274530;28;20040;-82
2021/06/15 14:22:53;;;;;;;5.17;2.80;;;31.90;48.40;;;;;;6274614;28;20029;-83
2021/06/15 14:25:53;;;;;;;3.22;2.85;;;31.90;47.90;;;;;;6291285;28;20060;-83
2021/06/15 14:29:06;;;;;;;3.65;2.80;;;31.90;46.40;;;;;;6273848;28;20379;-81
2021/06/15 14:32:07;;;;;;;4.53;2.80;;;32.50;45.00;;;;;;6257828;28;20020;-83
2021/06/15 14:35:13;;;;;;;3.35;2.80;;;31.50;46.00;;;;;;6274339;28;20124;-83
2021/06/15 14:38:18;;;;;;;5.75;2.85;;;31.40;46.20;;;;;;6290306;28;20032;-82
2021/06/15 14:41:49;;;;;;;4.68;3.30;;;31.40;47.70;;;;;;6274539;28;20055;-84
2021/06/15 14:44:50;;;;;;;;;;;32.10;48.00;;;;;;6276031;28;20695;-82
2021/06/15 14:47:50;;;;;;;5.87;3.20;;;31.40;46.20;;;;;;6290891;28;19911;-82
2021/06/15 14:50:51;;;;;;;3.10;2.77;;;31.40;48.10;;;;;;6290985;28;20036;-82
2021/06/15 14:53:52;;;;;;;3.83;2.70;;;31.50;48.20;;;;;;6272344;28;20302;-82
2021/06/15 14:56:53;;;;;;;4.97;2.90;;;31.50;49.10;;;;;;6273959;28;20158;-83
2021/06/15 14:59:54;;;;;;;4.10;3.00;;;31.20;45.50;;;;;;6277660;28;20056;-82
2021/06/15 15:02:55;;;;;;;4.55;2.75;;;31.20;46.10;;;;;;6293946;28;20371;-82
2021/06/15 15:05:55;;;;;;;3.53;2.85;;;31.20;46.00;;;;;;6293792;28;20653;-84
2021/06/15 15:08:56;;;;;;;4.38;3.10;;;31.30;47.30;;;;;;6293804;28;20446;-85
2021/06/15 15:11:56;;;;;;;3.50;2.97;;;31.30;49.60;;;;;;6276942;28;20740;-82
2021/06/15 15:14:58;;;;;;;2.67;2.47;;;31.40;46.50;;;;;;6277882;28;20394;-81
2021/06/15 15:17:58;;;;;;;;;;;31.50;45.40;;;;;;6271002;28;20020;-81
2021/06/15 15:20:59;;;;;;;4.00;2.83;;;31.50;47.50;;;;;;6277959;28;19962;-83
2021/06/15 15:24:00;;;;;;;3.35;2.97;;;31.30;46.00;;;;;;6278191;28;20070;-84
2021/06/15 15:27:01;;;;;;;;;;;31.10;47.30;;;;;;6272403;28;20028;-83
2021/06/15 15:30:02;;;;;;;4.43;3.20;;;31.10;47.30;;;;;;6277999;28;19974;-82
2021/06/15 15:33:03;;;;;;;6.28;3.00;;;30.90;47.40;;;;;;6277889;28;20032;-82
2021/06/15 15:36:05;;;;;;;3.72;3.17;;;31.00;47.10;;;;;;6294092;28;20415;-82
2021/06/15 15:39:06;;;;;;;3.92;3.30;;;31.00;46.00;;;;;;6277782;28;20032;-84
2021/06/15 15:42:07;;;;;;;4.78;3.53;;;31.10;46.40;;;;;;6294541;28;20360;-83
2021/06/15 15:45:08;;;;;;;3.53;3.22;;;31.10;48.00;;;;;;6294319;28;20071;-83
2021/06/15 15:48:09;;;;;;;4.43;2.90;;;31.00;48.40;;;;;;6294720;28;20036;-84
2021/06/15 15:51:13;;;;;;;3.67;3.10;;;31.00;46.70;;;;;;6294269;28;20461;-83
2021/06/15 15:54:13;;;;;;;3.83;3.17;;;30.80;47.60;;;;;;6267932;28;20151;-82
2021/06/15 15:57:16;;;;;;;4.93;3.17;;;30.80;44.10;;;;;;6293990;28;20028;-83
2021/06/15 16:00:17;;;;;;;4.30;2.90;;;30.80;45.30;;;;;;6277190;28;20408;-83
2021/06/15 16:03:18;;;;;;;3.10;2.80;;;30.70;47.10;;;;;;6294156;28;20031;-84
2021/06/15 16:06:18;;;;;;;3.57;2.87;;;30.60;46.10;;;;;;6293714;28;20033;-82